Time;durP1;ratioP1;P1;durP2;ratioP2;P2;SDS_P1;SDS_P2;PMS_P1;PMS_P2;Temp;Humidity;BMP_temperature;BMP_pressure;BME280_temperature;BME280_humidity;BME280_pressure;Samples;Min_cycle;Max_cycle;Signal;HPM_P1;HPM_P2
2021/06/13 00:02:13;;;;;;;10.77;2.60;;;;;;;13.22;61.85;100300.72;5064119;28;20035;-64
2021/06/13 00:04:38;;;;;;;11.95;2.03;;;;;;;13.19;61.78;100295.56;5064089;28;20013;-63
2021/06/13 00:07:04;;;;;;;10.75;1.98;;;;;;;13.20;61.98;100307.69;5064140;28;20100;-64
2021/06/13 00:09:29;;;;;;;11.85;1.95;;;;;;;13.21;62.01;100312.03;5063996;28;20028;-63
2021/06/13 00:11:55;;;;;;;8.25;1.98;;;;;;;13.21;61.96;100320.69;5063956;28;20492;-64
2021/06/13 00:14:22;;;;;;;13.00;2.80;;;;;;;13.20;62.08;100321.59;5062480;28;20031;-64
2021/06/13 00:16:48;;;;;;;4.28;1.88;;;;;;;13.16;62.09;100321.69;5063968;28;20031;-63
2021/06/13 00:19:13;;;;;;;8.18;1.95;;;;;;;13.13;62.20;100326.06;5063889;28;20029;-63
2021/06/13 00:21:39;;;;;;;12.02;2.75;;;;;;;13.13;62.22;100326.06;5063683;28;20494;-64
2021/06/13 00:24:06;;;;;;;10.13;1.80;;;;;;;13.04;62.62;100312.38;5062280;28;20089;-63
2021/06/13 00:26:31;;;;;;;9.43;2.15;;;;;;;12.97;62.77;100309.03;5063614;28;20028;-63
2021/06/13 00:28:57;;;;;;;9.70;2.30;;;;;;;13.01;62.68;100318.50;5063441;28;20028;-63
2021/06/13 00:31:22;;;;;;;7.82;1.92;;;;;;;13.00;62.72;100327.22;5063583;28;20468;-64
2021/06/13 00:33:49;;;;;;;20.77;3.13;;;;;;;12.93;62.87;100323.88;5063511;28;20032;-65
2021/06/13 00:36:14;;;;;;;8.68;1.65;;;;;;;12.93;62.80;100329.09;5063734;28;20013;-64
2021/06/13 00:38:39;;;;;;;8.57;2.20;;;;;;;12.87;62.96;100314.44;5063404;28;20327;-64
2021/06/13 00:41:07;;;;;;;11.70;2.00;;;;;;;12.88;63.03;100323.97;5062076;28;20056;-64
2021/06/13 00:43:33;;;;;;;6.18;1.85;;;;;;;12.84;63.16;100322.28;5062783;28;20029;-64
2021/06/13 00:45:58;;;;;;;8.40;2.13;;;;;;;12.81;63.24;100327.56;5063278;28;20080;-64
2021/06/13 00:48:23;;;;;;;11.10;2.67;;;;;;;12.74;63.13;100325.97;5063518;28;20025;-64
2021/06/13 00:50:52;;;;;;;10.38;2.33;;;;;;;12.75;63.29;100332.88;5063250;28;20044;-64
2021/06/13 00:53:18;;;;;;;11.70;1.73;;;;;;;12.73;63.33;100337.28;5062938;28;20053;-66
2021/06/13 00:55:44;;;;;;;18.75;2.75;;;;;;;12.69;63.47;100333.00;5063205;28;20031;-63
2021/06/13 00:58:10;;;;;;;9.55;2.45;;;;;;;12.68;63.40;100341.72;5063009;28;20035;-63
2021/06/13 01:00:37;;;;;;;7.72;1.25;;;;;;;12.64;63.38;100340.91;5063091;28;20080;-63
2021/06/13 01:03:04;;;;;;;9.73;1.77;;;;;;;12.60;63.53;100336.66;5063002;28;20021;-63
2021/06/13 01:05:30;;;;;;;7.40;1.65;;;;;;;12.61;63.55;100347.03;5061749;28;20059;-63
2021/06/13 01:08:21;;;;;;;9.40;1.85;;;;;;;12.56;63.82;100346.25;5064970;28;20113;-63
2021/06/13 01:11:11;;;;;;;11.15;1.92;;;;;;;12.55;64.05;100347.16;5067154;28;20032;-62
2021/06/13 01:14:14;;;;;;;10.77;2.10;;;;;;;12.54;64.22;100353.22;5067206;28;20484;-63
2021/06/13 01:16:57;;;;;;;11.35;2.03;;;;;;;12.52;64.35;100355.00;5067281;28;20040;-63
2021/06/13 01:19:49;;;;;;;12.43;2.72;;;;;;;12.53;64.41;100351.50;5067138;28;20159;-64
2021/06/13 01:22:55;;;;;;;15.63;2.47;;;;;;;12.51;64.62;100350.69;5067110;28;20448;-63
2021/06/13 01:25:36;;;;;;;16.35;2.35;;;;;;;12.51;64.89;100350.69;5058927;28;20033;-64
2021/06/13 01:28:43;;;;;;;12.48;2.20;;;;;;;12.51;64.92;100361.97;5066966;28;20080;-64
2021/06/13 01:31:09;;;;;;;14.70;2.67;;;;;;;12.47;65.38;100368.13;5058403;28;20033;-64
2021/06/13 01:33:36;;;;;;;9.48;1.45;;;;;;;12.39;65.99;100370.84;5066865;28;20100;-64
2021/06/13 01:36:02;;;;;;;15.00;2.22;;;;;;;12.45;65.65;100371.63;5066617;28;20017;-64
2021/06/13 01:38:30;;;;;;;14.00;1.70;;;;;;;12.43;65.85;100371.63;5066795;28;20036;-64
2021/06/13 01:41:01;;;;;;;12.48;2.05;;;;;;;12.43;66.03;100365.59;5066859;28;20081;-64
2021/06/13 01:43:29;;;;;;;12.30;2.22;;;;;;;12.48;66.06;100363.75;5066747;28;20021;-63
2021/06/13 01:45:56;;;;;;;9.73;1.80;;;;;;;12.46;66.46;100363.78;5048700;28;20096;-64
2021/06/13 01:48:22;;;;;;;14.20;3.08;;;;;;;12.46;66.49;100368.97;5066747;28;20401;-63
2021/06/13 01:50:48;;;;;;;12.00;2.38;;;;;;;12.42;66.66;100375.13;5066567;28;20025;-63
2021/06/13 01:53:16;;;;;;;11.10;2.08;;;;;;;12.44;66.87;100369.91;5066371;28;20064;-63
2021/06/13 01:55:46;;;;;;;8.90;1.85;;;;;;;12.42;66.91;100371.66;5065030;28;20017;-63
2021/06/13 01:58:14;;;;;;;8.30;2.58;;;;;;;12.41;66.83;100362.16;5066471;28;20055;-63
2021/06/13 02:00:41;;;;;;;5.78;1.58;;;;;;;12.42;66.98;100371.66;5066429;28;20021;-64
2021/06/13 02:03:09;;;;;;;7.75;2.47;;;;;;;12.43;66.83;100365.59;5066157;28;20111;-64
2021/06/13 02:05:36;;;;;;;11.60;1.77;;;;;;;12.39;66.63;100372.59;5066321;28;20047;-64
2021/06/13 02:08:02;;;;;;;7.43;1.45;;;;;;;12.45;66.52;100382.91;5066289;28;20021;-63
2021/06/13 02:10:29;;;;;;;6.57;1.75;;;;;;;12.45;66.39;100385.50;5066484;28;20050;-64
2021/06/13 02:12:56;;;;;;;10.02;1.90;;;;;;;12.46;66.20;100394.19;5066361;28;20024;-63
2021/06/13 02:15:26;;;;;;;13.98;2.10;;;;;;;12.47;66.13;100388.94;5066096;28;20076;-63
2021/06/13 02:17:53;;;;;;;7.25;2.10;;;;;;;12.49;66.10;100397.56;5064434;28;20029;-63
2021/06/13 02:20:21;;;;;;;8.15;2.17;;;;;;;12.46;65.88;100400.22;5064781;28;20025;-63
2021/06/13 02:22:48;;;;;;;7.72;1.55;;;;;;;12.51;65.90;100406.22;5066165;28;20024;-63
2021/06/13 02:25:15;;;;;;;9.50;1.52;;;;;;;12.56;65.66;100402.69;5065989;28;20040;-63
2021/06/13 02:27:41;;;;;;;7.88;1.92;;;;;;;12.54;65.57;100402.69;5065739;28;20096;-62
2021/06/13 02:30:08;;;;;;;6.53;1.50;;;;;;;12.61;65.41;100408.66;5047847;28;20021;-63
2021/06/13 02:32:35;;;;;;;7.63;1.30;;;;;;;12.64;65.28;100406.00;5066088;28;20025;-63
2021/06/13 02:35:02;;;;;;;7.28;1.65;;;;;;;12.66;65.01;100398.19;5065958;28;20036;-63
2021/06/13 02:37:31;;;;;;;3.97;1.15;;;;;;;12.70;64.94;100413.72;5065645;28;20093;-63
2021/06/13 02:39:56;;;;;;;8.95;1.52;;;;;;;12.71;64.86;100417.19;5065745;28;20097;-65
2021/06/13 02:42:22;;;;;;;6.93;1.73;;;;;;;12.74;64.73;100420.63;5065719;28;20455;-63
2021/06/13 02:44:47;;;;;;;8.40;1.40;;;;;;;12.75;64.96;100421.44;5064078;28;20052;-63
2021/06/13 02:47:14;;;;;;;6.13;1.42;;;;;;;12.76;64.82;100426.63;5047472;28;20024;-64
2021/06/13 02:49:39;;;;;;;9.95;1.95;;;;;;;12.77;64.76;100427.50;5065533;28;20033;-63
2021/06/13 02:52:26;;;;;;;6.72;1.48;;;;;;;12.81;64.57;100434.38;5065369;28;20029;-65
2021/06/13 02:54:58;;;;;;;11.40;1.63;;;;;;;12.84;64.72;100444.72;5047407;28;20029;-64
2021/06/13 02:57:47;;;;;;;12.63;1.63;;;;;;;12.88;64.75;100448.16;5063956;28;20021;-64
2021/06/13 03:00:13;;;;;;;9.65;1.80;;;;;;;12.91;64.62;100455.91;5065179;28;20088;-63
2021/06/13 03:02:43;;;;;;;8.02;2.42;;;;;;;12.94;64.56;100458.47;5047126;28;20112;-63
2021/06/13 03:05:10;;;;;;;10.52;1.45;;;;;;;12.99;64.63;100450.56;5065098;28;20036;-63
2021/06/13 03:07:37;;;;;;;5.95;1.40;;;;;;;13.23;64.65;100459.69;5064952;28;20025;-64
2021/06/13 03:10:05;;;;;;;6.38;1.35;;;;;;;13.53;64.67;100466.97;5063825;28;20017;-64
2021/06/13 03:12:31;;;;;;;4.47;1.33;;;;;;;13.94;64.58;100463.56;5064748;28;20114;-64
2021/06/13 03:14:58;;;;;;;7.75;1.30;;;;;;;14.45;63.06;100469.38;5064976;28;20076;-64
2021/06/13 03:17:24;;;;;;;11.25;1.95;;;;;;;14.94;62.43;100469.97;5064895;28;20025;-64
2021/06/13 03:19:50;;;;;;;5.38;1.30;;;;;;;15.44;61.05;100476.50;5064724;28;20055;-64
2021/06/13 03:22:16;;;;;;;5.85;1.55;;;;;;;16.05;59.98;100485.28;5046835;28;20091;-64
2021/06/13 03:24:45;;;;;;;3.80;1.30;;;;;;;16.52;58.92;100486.44;5064535;28;20028;-64
2021/06/13 03:27:11;;;;;;;9.27;1.23;;;;;;;17.19;57.36;100496.50;5064613;28;20033;-64
2021/06/13 03:29:40;;;;;;;8.55;1.40;;;;;;;17.71;55.16;100495.56;5064193;28;20075;-64
2021/06/13 03:32:08;;;;;;;7.00;1.38;;;;;;;18.34;53.98;100491.47;5064591;28;20499;-64
2021/06/13 03:34:33;;;;;;;4.70;1.33;;;;;;;18.64;52.30;100498.19;5063370;28;20017;-64
2021/06/13 03:36:59;;;;;;;6.10;1.30;;;;;;;19.01;51.88;100508.97;5064474;28;20074;-64
2021/06/13 03:39:25;;;;;;;6.90;1.30;;;;;;;19.28;50.58;100506.94;5064208;28;20024;-64
2021/06/13 03:41:52;;;;;;;3.95;0.95;;;;;;;19.66;49.35;100505.31;5063108;28;20040;-65
2021/06/13 03:44:19;;;;;;;7.00;1.70;;;;;;;19.97;48.91;100508.31;5064023;28;20032;-64
2021/06/13 03:46:45;;;;;;;10.20;1.30;;;;;;;20.24;47.50;100514.09;5046293;28;20021;-64
2021/06/13 03:49:12;;;;;;;8.50;1.13;;;;;;;20.58;46.69;100508.09;5046450;28;20032;-64
2021/06/13 03:51:37;;;;;;;9.70;1.92;;;;;;;20.86;45.65;100512.03;5064512;28;20028;-64
2021/06/13 03:54:03;;;;;;;5.15;1.40;;;;;;;21.15;45.24;100507.09;5064515;28;20044;-64
2021/06/13 03:56:37;;;;;;;9.43;1.20;;;;;;;21.54;45.24;100508.56;5063089;28;20027;-65
2021/06/13 03:59:04;;;;;;;7.28;2.00;;;;;;;21.97;43.13;100506.34;5064323;28;20049;-65
2021/06/13 04:01:31;;;;;;;5.13;1.00;;;;;;;22.17;42.45;100515.84;5064364;28;20024;-65
2021/06/13 04:03:58;;;;;;;5.40;1.10;;;;;;;22.49;41.80;100525.53;5064484;28;20318;-65
2021/06/13 04:06:24;;;;;;;3.75;1.02;;;;;;;22.96;41.18;100525.50;5064291;28;20017;-65
2021/06/13 04:08:51;;;;;;;7.57;1.67;;;;;;;23.36;39.34;100519.63;5064360;28;20025;-65
2021/06/13 04:11:19;;;;;;;4.75;1.10;;;;;;;23.61;38.54;100512.88;5062834;28;20029;-64
2021/06/13 04:13:47;;;;;;;4.93;0.90;;;;;;;23.77;36.99;100516.25;5045904;28;20028;-64
2021/06/13 04:16:14;;;;;;;3.90;0.80;;;;;;;24.00;36.82;100526.34;5063989;28;20017;-64
2021/06/13 04:18:41;;;;;;;1.95;0.85;;;;;;;24.23;35.13;100534.69;5063805;28;20025;-66
2021/06/13 04:21:09;;;;;;;5.55;1.13;;;;;;;24.46;34.76;100533.16;5063853;28;20021;-64
2021/06/13 04:23:35;;;;;;;2.97;0.80;;;;;;;24.74;33.73;100533.16;5064015;28;20528;-65
2021/06/13 04:26:00;;;;;;;4.72;0.90;;;;;;;25.09;32.97;100543.25;5063744;28;20490;-64
2021/06/13 04:28:26;;;;;;;1.92;0.60;;;;;;;25.37;31.39;100546.66;5063766;28;20021;-64
2021/06/13 04:31:03;;;;;;;2.25;0.73;;;;;;;25.32;31.33;100545.28;5063769;28;20044;-64
2021/06/13 04:33:30;;;;;;;3.60;0.60;;;;;;;25.58;30.70;100538.13;5062489;28;20052;-65
2021/06/13 04:35:56;;;;;;;3.05;0.70;;;;;;;25.41;30.64;100555.28;5063802;28;20070;-64
2021/06/13 04:38:22;;;;;;;2.17;0.60;;;;;;;25.69;30.21;100560.47;5063724;28;20043;-65
2021/06/13 04:40:47;;;;;;;1.92;0.52;;;;;;;25.85;29.84;100568.22;5063509;28;20461;-64
2021/06/13 04:43:12;;;;;;;1.67;0.50;;;;;;;25.97;29.66;100559.41;5063486;28;20020;-64
2021/06/13 04:45:38;;;;;;;6.18;1.20;;;;;;;26.21;29.21;100563.91;5063671;28;20064;-64
2021/06/13 04:48:06;;;;;;;1.42;0.50;;;;;;;26.30;28.91;100565.03;5045698;28;20023;-64
2021/06/13 04:50:35;;;;;;;2.65;0.60;;;;;;;26.48;28.55;100572.66;5063535;28;20039;-64
2021/06/13 04:53:02;;;;;;;2.03;0.65;;;;;;;26.46;28.03;100570.13;5063264;28;20083;-64
2021/06/13 04:55:59;;;;;;;3.42;1.08;;;;;;;26.83;28.35;100569.19;5063383;28;20032;-65
2021/06/13 04:58:26;;;;;;;6.53;0.65;;;;;;;27.03;27.61;100574.00;5037268;28;20029;-64
2021/06/13 05:00:52;;;;;;;1.83;0.60;;;;;;;27.09;26.95;100573.53;5063527;28;20051;-64
2021/06/13 05:03:18;;;;;;;2.25;0.52;;;;;;;27.08;26.73;100578.00;5063306;28;20029;-65
2021/06/13 05:05:43;;;;;;;2.30;0.50;;;;;;;27.16;26.96;100581.88;5063344;28;20028;-65
2021/06/13 05:08:09;;;;;;;1.48;0.43;;;;;;;27.27;26.56;100586.41;5063312;28;20017;-64
2021/06/13 05:10:34;;;;;;;1.63;0.55;;;;;;;26.98;26.77;100572.50;5063394;28;20024;-65
2021/06/13 05:13:00;;;;;;;2.80;0.70;;;;;;;27.05;26.60;100586.25;5063213;28;20028;-64
2021/06/13 05:15:25;;;;;;;4.85;0.77;;;;;;;27.10;26.21;100589.41;5063241;28;20024;-65
2021/06/13 05:17:51;;;;;;;1.48;0.50;;;;;;;27.18;26.17;100595.94;5063279;28;20024;-65
2021/06/13 05:20:18;;;;;;;2.30;0.65;;;;;;;27.47;26.00;100601.72;5063380;28;20021;-65
2021/06/13 05:22:56;;;;;;;2.40;0.47;;;;;;;27.64;25.50;100602.22;5063078;28;20079;-65
2021/06/13 05:25:23;;;;;;;3.65;0.55;;;;;;;27.78;25.38;100600.31;5063276;28;20032;-66
2021/06/13 05:27:48;;;;;;;1.75;0.60;;;;;;;27.90;25.04;100603.81;5063245;28;20024;-66
2021/06/13 05:30:14;;;;;;;2.08;0.80;;;;;;;28.02;25.05;100610.84;5063357;28;20025;-66
2021/06/13 05:32:40;;;;;;;1.80;0.50;;;;;;;28.26;24.66;100606.34;5063185;28;20031;-66
2021/06/13 05:35:06;;;;;;;3.30;0.50;;;;;;;28.64;24.22;100614.91;5063202;28;20016;-66
2021/06/13 05:37:31;;;;;;;1.80;0.60;;;;;;;28.57;23.69;100599.38;5063028;28;20040;-65
2021/06/13 05:39:57;;;;;;;3.83;0.38;;;;;;;28.99;23.40;100620.97;5063065;28;20021;-65
2021/06/13 05:42:22;;;;;;;1.90;0.47;;;;;;;29.25;23.08;100617.94;5063030;28;20029;-64
2021/06/13 05:44:48;;;;;;;3.72;0.60;;;;;;;29.48;22.80;100623.13;5061448;28;20075;-64
2021/06/13 05:47:13;;;;;;;1.50;0.50;;;;;;;29.67;22.65;100627.75;5062979;28;20032;-65
2021/06/13 05:49:39;;;;;;;2.35;0.60;;;;;;;29.97;22.16;100634.09;5061691;28;20052;-65
2021/06/13 05:52:05;;;;;;;1.92;0.60;;;;;;;29.98;21.48;100635.81;5045059;28;20129;-65
2021/06/13 05:54:30;;;;;;;3.28;0.82;;;;;;;29.76;21.80;100636.84;5065193;28;20070;-65
2021/06/13 05:56:56;;;;;;;1.65;0.50;;;;;;;29.64;21.63;100644.94;5065270;28;20016;-66
2021/06/13 05:59:21;;;;;;;1.25;0.45;;;;;;;29.17;22.24;100648.00;5066397;28;20029;-65
2021/06/13 06:01:46;;;;;;;1.92;0.60;;;;;;;28.83;22.53;100631.06;5066637;28;20018;-66
2021/06/13 06:04:12;;;;;;;3.13;0.70;;;;;;;28.78;22.60;100644.00;5066561;28;20029;-66
2021/06/13 06:06:37;;;;;;;1.67;0.68;;;;;;;28.53;22.82;100651.31;5066565;28;20111;-66
2021/06/13 06:09:03;;;;;;;1.55;0.50;;;;;;;28.19;23.16;100660.22;5066470;28;20044;-66
2021/06/13 06:11:28;;;;;;;2.20;0.55;;;;;;;28.15;23.41;100669.44;5066399;28;20075;-65
2021/06/13 06:13:54;;;;;;;3.10;0.38;;;;;;;28.41;23.41;100674.53;5064803;28;20029;-66
2021/06/13 06:16:21;;;;;;;1.58;0.43;;;;;;;28.70;23.03;100675.81;5066407;28;20104;-65
2021/06/13 06:18:46;;;;;;;1.90;0.50;;;;;;;28.92;22.94;100680.25;5066267;28;20334;-65
2021/06/13 06:21:12;;;;;;;3.45;0.75;;;;;;;29.07;22.87;100671.97;5066151;28;20108;-66
2021/06/13 06:23:37;;;;;;;1.70;0.70;;;;;;;29.13;22.30;100683.94;5047969;28;20025;-66
2021/06/13 06:26:03;;;;;;;1.38;0.50;;;;;;;28.76;22.48;100687.81;5048041;28;20024;-67
2021/06/13 06:28:28;;;;;;;3.85;0.60;;;;;;;28.35;23.36;100684.84;5065860;28;20477;-66
2021/06/13 06:30:54;;;;;;;2.33;0.60;;;;;;;28.50;23.60;100693.47;5066053;28;20519;-66
2021/06/13 06:33:19;;;;;;;3.95;0.77;;;;;;;28.40;23.58;100686.19;5066041;28;20137;-66
2021/06/13 06:35:44;;;;;;;0.63;0.25;;;;;;;28.20;23.49;100690.41;5065908;28;20032;-65
2021/06/13 06:38:10;;;;;;;2.63;0.50;;;;;;;27.95;23.73;100701.22;5065932;28;20230;-65
2021/06/13 06:40:35;;;;;;;1.63;0.50;;;;;;;27.78;24.19;100704.34;5064379;28;20025;-65
2021/06/13 06:43:00;;;;;;;1.40;0.40;;;;;;;27.97;24.13;100693.09;5065572;28;20036;-65
2021/06/13 06:45:26;;;;;;;1.85;0.65;;;;;;;27.95;24.25;100695.03;5065742;28;20525;-66
2021/06/13 06:47:51;;;;;;;3.63;0.70;;;;;;;28.05;24.19;100689.81;5047605;28;20032;-65
2021/06/13 06:50:17;;;;;;;3.17;0.70;;;;;;;28.20;23.95;100691.28;5065680;28;20021;-65
2021/06/13 06:52:43;;;;;;;2.40;0.65;;;;;;;28.21;24.03;100700.13;5065407;28;20040;-66
2021/06/13 06:55:09;;;;;;;1.55;0.63;;;;;;;28.22;24.00;100701.81;5065570;28;20104;-66
2021/06/13 06:57:37;;;;;;;1.95;0.60;;;;;;;28.26;23.84;100713.13;5047463;28;20021;-67
2021/06/13 07:00:06;;;;;;;4.40;0.60;;;;;;;28.52;23.52;100705.72;5047434;28;20031;-67
2021/06/13 07:02:31;;;;;;;2.80;0.55;;;;;;;28.52;23.07;100703.03;5065313;28;20028;-67
2021/06/13 07:04:57;;;;;;;2.05;0.40;;;;;;;28.49;23.09;100705.97;5062787;28;20025;-66
2021/06/13 07:07:22;;;;;;;1.27;0.50;;;;;;;28.48;23.12;100716.75;5065541;28;20496;-66
2021/06/13 07:09:48;;;;;;;0.95;0.43;;;;;;;28.19;23.75;100723.41;5065263;28;20021;-66
2021/06/13 07:12:13;;;;;;;1.23;0.47;;;;;;;28.06;23.81;100720.84;5065232;28;20021;-65
2021/06/13 07:14:39;;;;;;;2.70;0.50;;;;;;;28.15;23.51;100712.13;5065116;28;20021;-66
2021/06/13 07:17:04;;;;;;;1.52;0.50;;;;;;;28.04;23.94;100717.44;5065148;28;20392;-65
2021/06/13 07:19:30;;;;;;;5.28;0.50;;;;;;;28.11;23.64;100715.16;5065232;28;20031;-66
2021/06/13 07:21:55;;;;;;;1.52;0.50;;;;;;;28.07;23.96;100714.53;5064934;28;20103;-64
2021/06/13 07:24:20;;;;;;;1.92;0.50;;;;;;;28.06;23.89;100718.19;5064899;28;20031;-65
2021/06/13 07:26:46;;;;;;;2.95;0.60;;;;;;;27.68;23.79;100713.06;5064808;28;20033;-65
2021/06/13 07:29:11;;;;;;;3.10;0.80;;;;;;;27.34;24.55;100728.91;5046696;28;20063;-65
2021/06/13 07:31:36;;;;;;;2.67;0.68;;;;;;;27.22;24.65;100718.19;5046776;28;20053;-65
2021/06/13 07:34:02;;;;;;;1.77;0.50;;;;;;;27.08;24.83;100721.88;5064977;28;20025;-65
2021/06/13 07:36:27;;;;;;;2.13;0.65;;;;;;;26.95;25.23;100719.22;5064784;28;20029;-65
2021/06/13 07:38:53;;;;;;;1.90;0.70;;;;;;;27.04;25.36;100733.75;5064567;28;20028;-65
2021/06/13 07:41:18;;;;;;;2.40;0.88;;;;;;;27.27;24.75;100733.81;5046632;28;20063;-66
2021/06/13 07:43:43;;;;;;;2.22;0.70;;;;;;;27.47;25.02;100744.81;5064584;28;20032;-65
2021/06/13 07:46:09;;;;;;;3.58;0.50;;;;;;;27.59;24.70;100741.22;5064425;28;20037;-65
2021/06/13 07:48:34;;;;;;;1.98;0.60;;;;;;;27.51;24.69;100751.63;5064460;28;20017;-65
2021/06/13 07:51:01;;;;;;;3.20;1.52;;;;;;;27.43;24.80;100760.19;5064370;28;20029;-66
2021/06/13 07:53:26;;;;;;;3.97;0.80;;;;;;;27.50;25.00;100767.72;5064328;28;20056;-65
2021/06/13 07:55:52;;;;;;;1.33;0.60;;;;;;;27.52;24.30;100763.13;5064443;28;20318;-67
2021/06/13 07:58:17;;;;;;;2.35;0.70;;;;;;;27.59;24.66;100772.38;5063077;28;20027;-66
2021/06/13 08:00:42;;;;;;;3.45;1.35;;;;;;;27.78;24.63;100771.84;5064197;28;20025;-66
2021/06/13 08:03:08;;;;;;;1.83;0.50;;;;;;;27.91;24.32;100769.09;5064521;28;20028;-66
2021/06/13 08:05:35;;;;;;;0.95;0.60;;;;;;;28.02;24.49;100788.78;5064079;28;20049;-66
2021/06/13 08:08:06;;;;;;;2.05;0.80;;;;;;;28.33;24.20;100773.94;5064083;28;20032;-67
2021/06/13 08:10:32;;;;;;;2.60;0.60;;;;;;;28.50;23.64;100786.94;5063983;28;20033;-66
2021/06/13 08:12:58;;;;;;;2.22;0.70;;;;;;;28.55;23.63;100787.38;5063501;28;20025;-66
2021/06/13 08:15:24;;;;;;;1.20;0.40;;;;;;;28.60;23.04;100789.69;5063966;28;20082;-65
2021/06/13 08:17:50;;;;;;;5.80;1.00;;;;;;;28.51;23.37;100799.28;5063740;28;20108;-67
2021/06/13 08:20:17;;;;;;;3.03;0.77;;;;;;;28.47;23.12;100798.69;5063905;28;20036;-69
2021/06/13 08:22:43;;;;;;;5.38;0.60;;;;;;;28.21;23.58;100801.56;5063910;28;20025;-67
2021/06/13 08:25:13;;;;;;;1.88;0.57;;;;;;;27.94;23.66;100792.88;5062442;28;20028;-70
2021/06/13 08:27:38;;;;;;;2.33;0.80;;;;;;;27.80;24.16;100799.28;5062447;28;20028;-68
2021/06/13 08:30:06;;;;;;;4.28;0.50;;;;;;;27.83;24.41;100806.19;5063474;28;20043;-69
2021/06/13 08:32:32;;;;;;;2.83;0.88;;;;;;;27.57;24.06;100811.66;5063946;28;20025;-68
2021/06/13 08:34:58;;;;;;;2.28;0.50;;;;;;;27.19;24.16;100809.00;5063549;28;20036;-69
2021/06/13 08:37:23;;;;;;;5.35;0.82;;;;;;;27.01;24.62;100813.88;5063591;28;20027;-67
2021/06/13 08:39:50;;;;;;;2.60;0.70;;;;;;;27.15;24.65;100814.69;5063501;28;20260;-70
2021/06/13 08:42:16;;;;;;;2.45;0.52;;;;;;;27.31;24.06;100814.41;5045805;28;20092;-68
2021/06/13 08:44:42;;;;;;;1.48;0.38;;;;;;;27.27;24.56;100812.94;5063264;28;20055;-64
2021/06/13 08:47:12;;;;;;;1.85;0.95;;;;;;;27.50;24.40;100824.56;5062274;28;20039;-65
2021/06/13 08:49:37;;;;;;;1.35;0.52;;;;;;;27.77;24.04;100822.66;5063815;28;20027;-68
2021/06/13 08:52:04;;;;;;;2.85;0.50;;;;;;;28.18;23.40;100813.31;5063438;28;20025;-73
2021/06/13 08:54:30;;;;;;;1.48;0.50;;;;;;;28.69;22.75;100829.06;5063631;28;20037;-73
2021/06/13 08:56:55;;;;;;;1.65;0.60;;;;;;;28.76;21.99;100832.06;5062252;28;20021;-70
2021/06/13 08:59:21;;;;;;;1.75;0.50;;;;;;;28.87;22.21;100829.38;5063226;28;20060;-75
2021/06/13 09:01:46;;;;;;;2.03;0.63;;;;;;;29.13;22.45;100826.47;5045637;28;20036;-75
2021/06/13 09:04:12;;;;;;;1.35;0.47;;;;;;;29.13;21.27;100839.84;5063386;28;20032;-71
2021/06/13 09:06:37;;;;;;;1.52;0.60;;;;;;;28.91;21.59;100836.19;5063517;28;20025;-67
2021/06/13 09:09:26;;;;;;;6.10;0.70;;;;;;;28.82;22.04;100826.22;5063488;28;20028;-76
2021/06/13 09:11:59;;;;;;;2.33;0.90;;;;;;;29.19;22.39;100844.69;5062909;28;20033;-75
2021/06/13 09:14:26;;;;;;;2.78;0.73;;;;;;;29.38;21.46;100832.47;5045395;28;20025;-68
2021/06/13 09:16:53;;;;;;;1.95;0.60;;;;;;;29.37;20.85;100836.13;5063333;28;20025;-74
2021/06/13 09:19:19;;;;;;;2.00;0.73;;;;;;;29.20;22.06;100846.38;5063399;28;20155;-72
2021/06/13 09:21:46;;;;;;;1.60;0.60;;;;;;;29.14;21.91;100846.88;5063304;28;20029;-70
2021/06/13 09:24:29;;;;;;;2.95;0.88;;;;;;;28.75;22.69;100841.91;5063063;28;20033;-78
2021/06/13 09:26:55;;;;;;;3.72;0.47;;;;;;;29.12;22.02;100848.84;5063010;28;20082;-69
2021/06/13 09:29:22;;;;;;;2.53;0.95;;;;;;;29.38;21.95;100853.88;5065659;28;20024;-63
2021/06/13 09:32:03;;;;;;;1.00;0.45;;;;;;;29.32;22.24;100849.88;5067127;28;20099;-69
2021/06/13 09:34:29;;;;;;;;;;;;;;;29.52;22.57;100849.22;5067605;28;20025;-67
2021/06/13 09:37:02;;;;;;;2.35;0.47;;;;;;;29.04;21.34;100841.41;5066902;28;20278;-69
2021/06/13 09:39:29;;;;;;;2.80;0.63;;;;;;;28.56;22.14;100855.88;5067254;28;20424;-64
2021/06/13 09:41:54;;;;;;;1.75;0.60;;;;;;;28.33;22.18;100858.50;5066672;28;20031;-64
2021/06/13 09:44:21;;;;;;;2.80;0.60;;;;;;;27.97;22.78;100853.19;5066701;28;20044;-65
2021/06/13 09:46:52;;;;;;;6.75;1.38;;;;;;;27.93;22.87;100857.03;5065371;28;20021;-64
2021/06/13 09:49:19;;;;;;;1.27;0.60;;;;;;;28.17;22.62;100864.13;5066903;28;20053;-66
2021/06/13 09:51:53;;;;;;;2.13;0.75;;;;;;;28.45;22.53;100862.06;5066793;28;20025;-63
2021/06/13 09:54:21;;;;;;;2.60;0.70;;;;;;;28.60;22.29;100867.13;5066743;28;20077;-70
2021/06/13 09:56:47;;;;;;;6.28;0.77;;;;;;;28.73;21.80;100859.00;5066689;28;20025;-70
2021/06/13 09:59:13;;;;;;;3.15;0.68;;;;;;;28.74;21.46;100871.41;5066434;28;20053;-64
2021/06/13 10:01:55;;;;;;;3.15;0.80;;;;;;;28.77;21.18;100871.19;5066970;28;20123;-70
2021/06/13 10:04:21;;;;;;;1.73;0.63;;;;;;;28.55;21.74;100880.84;5064350;28;20033;-66
2021/06/13 10:06:59;;;;;;;1.90;0.68;;;;;;;28.57;21.49;100878.91;5066800;28;20024;-71
2021/06/13 10:09:50;;;;;;;2.90;0.85;;;;;;;28.04;22.43;100894.41;5066697;28;20017;-64
2021/06/13 10:12:15;;;;;;;2.85;0.75;;;;;;;27.58;23.02;100901.31;5065065;28;20024;-67
2021/06/13 10:14:42;;;;;;;1.77;0.57;;;;;;;27.64;23.12;100894.69;5066340;28;20032;-66
2021/06/13 10:17:08;;;;;;;3.97;0.73;;;;;;;27.30;23.03;100906.84;5066455;28;20026;-66
2021/06/13 10:19:42;;;;;;;2.42;0.60;;;;;;;27.15;23.93;100914.13;5066364;28;20021;-64
2021/06/13 10:22:09;;;;;;;2.70;0.80;;;;;;;27.27;23.93;100909.72;5066257;28;20029;-69
2021/06/13 10:24:37;;;;;;;3.10;1.05;;;;;;;27.32;24.09;100914.72;5064862;28;20064;-66
2021/06/13 10:27:08;;;;;;;6.78;1.17;;;;;;;27.37;23.79;100914.41;5066179;28;20029;-66
2021/06/13 10:29:37;;;;;;;5.90;0.68;;;;;;;27.27;24.02;100919.56;5065886;28;20025;-64
2021/06/13 10:32:05;;;;;;;2.47;1.02;;;;;;;27.22;24.68;100931.38;5065998;28;20059;-66
2021/06/13 10:34:31;;;;;;;3.45;0.80;;;;;;;27.15;23.97;100926.59;5065957;28;20218;-67
2021/06/13 10:37:03;;;;;;;1.98;0.70;;;;;;;26.91;23.96;100933.53;5066157;28;20052;-66
2021/06/13 10:39:29;;;;;;;;;;;;;;;26.72;24.36;100928.63;5066238;28;20093;-66
2021/06/13 10:41:55;;;;;;;1.02;0.52;;;;;;;26.34;24.85;100922.31;5065935;28;20384;-64
2021/06/13 10:44:23;;;;;;;3.92;1.25;;;;;;;26.34;24.74;100935.59;5065754;28;20040;-66
2021/06/13 10:46:54;;;;;;;2.90;0.73;;;;;;;25.98;25.22;100938.78;5065833;28;20032;-63
2021/06/13 10:49:33;;;;;;;2.03;0.75;;;;;;;25.67;25.69;100946.06;5065564;28;20080;-66
2021/06/13 10:52:10;;;;;;;2.38;0.80;;;;;;;25.67;25.93;100954.03;5064305;28;20025;-64
2021/06/13 10:54:46;;;;;;;3.90;0.68;;;;;;;25.82;26.02;100962.84;5065457;28;20338;-71
2021/06/13 10:57:11;;;;;;;2.50;0.65;;;;;;;25.65;26.13;100961.28;5065918;28;20055;-66
2021/06/13 10:59:40;;;;;;;1.40;0.70;;;;;;;25.15;26.21;100959.00;5065451;28;20021;-65
2021/06/13 11:02:11;;;;;;;3.25;0.90;;;;;;;24.32;27.49;100957.69;5065658;28;20042;-66
2021/06/13 11:05:05;;;;;;;1.55;0.60;;;;;;;23.54;28.70;100967.28;5065599;28;20025;-65
2021/06/13 11:07:34;;;;;;;1.73;0.60;;;;;;;23.10;29.63;100969.56;5043757;28;20025;-66
2021/06/13 11:10:02;;;;;;;6.13;0.90;;;;;;;22.62;29.72;100980.81;5063977;28;20032;-62
2021/06/13 11:12:38;;;;;;;3.55;0.93;;;;;;;22.07;30.39;100980.75;5065088;28;20017;-67
2021/06/13 11:15:04;;;;;;;2.88;0.82;;;;;;;21.24;31.74;100984.47;5063762;28;20021;-70
2021/06/13 11:17:53;;;;;;;2.40;0.70;;;;;;;20.73;32.35;100984.00;5065382;28;20025;-69
2021/06/13 11:20:29;;;;;;;3.78;0.75;;;;;;;20.22;33.58;100989.56;5064577;28;20028;-71
2021/06/13 11:22:55;;;;;;;4.18;0.90;;;;;;;19.93;34.12;100981.84;5065293;28;20081;-70
2021/06/13 11:25:25;;;;;;;2.40;0.80;;;;;;;19.63;34.89;100982.94;5065288;28;20021;-69
2021/06/13 11:28:08;;;;;;;2.40;0.70;;;;;;;19.31;35.61;100977.13;5065022;28;20069;-69
2021/06/13 11:30:33;;;;;;;1.70;0.80;;;;;;;19.13;35.65;100968.97;5064979;28;20013;-69